Time;durP1;ratioP1;P1;durP2;ratioP2;P2;SDS_P1;SDS_P2;PMS_P1;PMS_P2;Temp;Humidity;BMP_temperature;BMP_pressure;BME280_temperature;BME280_humidity;BME280_pressure;Samples;Min_cycle;Max_cycle;Signal;HPM_P1;HPM_P2
2022/06/22 00:01:12;;;;;;;47.83;34.20;;;26.40;99.90;;;;;;5031586;28;20026;-62
2022/06/22 00:03:40;;;;;;;59.58;35.63;;;26.50;99.90;;;;;;5031013;28;20041;-62
2022/06/22 00:06:28;;;;;;;60.67;37.30;;;26.50;99.90;;;;;;5031456;28;20382;-62
2022/06/22 00:08:55;;;;;;;57.55;37.17;;;26.50;99.90;;;;;;5066948;28;20070;-63
2022/06/22 00:11:23;;;;;;;102.25;75.75;;;26.50;99.90;;;;;;5093673;28;20016;-64
2022/06/22 00:13:56;;;;;;;150.50;100.10;;;26.50;99.90;;;;;;5092926;28;20229;-63
2022/06/22 00:16:29;;;;;;;86.53;63.22;;;26.50;99.90;;;;;;5093300;28;20480;-64
2022/06/22 00:18:58;;;;;;;61.55;39.05;;;26.50;99.90;;;;;;5086404;28;20496;-64
2022/06/22 00:21:24;;;;;;;55.78;37.83;;;26.50;99.90;;;;;;5091706;28;20024;-64
2022/06/22 00:23:58;;;;;;;67.63;48.90;;;26.60;99.90;;;;;;5090907;28;20031;-65
2022/06/22 00:26:24;;;;;;;60.58;38.13;;;26.60;99.90;;;;;;5092640;28;20096;-64
2022/06/22 00:28:59;;;;;;;52.63;36.95;;;26.60;99.90;;;;;;5088735;28;20031;-65
2022/06/22 00:31:37;;;;;;;55.38;38.63;;;26.50;99.90;;;;;;5087754;28;20024;-62
2022/06/22 00:34:06;;;;;;;77.80;55.08;;;26.60;99.90;;;;;;5087907;28;20101;-62
2022/06/22 00:36:43;;;;;;;134.73;101.88;;;26.70;99.90;;;;;;5090576;28;20025;-62
2022/06/22 00:39:19;;;;;;;72.35;52.00;;;26.80;99.90;;;;;;5090307;28;20020;-62
2022/06/22 00:41:58;;;;;;;52.00;37.38;;;26.90;99.90;;;;;;5087713;28;20361;-63
2022/06/22 00:44:30;;;;;;;49.35;33.72;;;26.90;99.90;;;;;;5089896;28;20020;-63
2022/06/22 00:47:08;;;;;;;;;;;27.00;99.90;;;;;;5091378;28;20020;-62
2022/06/22 00:49:36;;;;;;;47.15;33.97;;;27.00;99.90;;;;;;5089917;28;19911;-62
2022/06/22 00:52:06;;;;;;;45.63;33.47;;;27.10;99.90;;;;;;5092695;28;20024;-62
2022/06/22 00:54:35;;;;;;;46.83;32.67;;;27.10;99.90;;;;;;5089635;28;20024;-61
2022/06/22 00:57:15;;;;;;;86.22;65.35;;;27.20;99.90;;;;;;5092526;28;20107;-62
2022/06/22 00:59:44;;;;;;;314.80;233.90;;;27.20;99.90;;;;;;5092006;28;20021;-63
2022/06/22 01:02:37;;;;;;;82.75;53.38;;;27.30;99.90;;;;;;5092268;28;20024;-61
2022/06/22 01:05:44;;;;;;;172.05;123.50;;;27.40;99.90;;;;;;5092293;28;20032;-61
2022/06/22 01:08:12;;;;;;;65.72;48.17;;;27.50;99.90;;;;;;5090616;28;20055;-61
2022/06/22 01:10:56;;;;;;;45.72;33.03;;;27.50;99.90;;;;;;5093072;28;20028;-65
2022/06/22 01:13:45;;;;;;;47.85;34.05;;;27.50;99.90;;;;;;5093856;28;20107;-65
2022/06/22 01:16:25;;;;;;;47.92;32.58;;;27.60;99.90;;;;;;5096717;28;20115;-63
2022/06/22 01:19:26;;;;;;;51.75;32.67;;;27.60;99.90;;;;;;5096898;28;20020;-65
2022/06/22 01:22:14;;;;;;;45.67;31.48;;;27.60;99.90;;;;;;4989418;28;20110;-65
2022/06/22 01:24:50;;;;;;;46.05;32.28;;;27.60;99.90;;;;;;4992996;28;20066;-65
2022/06/22 01:27:20;;;;;;;49.10;30.67;;;27.60;99.90;;;;;;4986066;28;20062;-66
2022/06/22 01:29:51;;;;;;;43.90;27.60;;;27.70;99.90;;;;;;4987774;28;20113;-66
2022/06/22 01:32:22;;;;;;;30.70;19.27;;;27.90;99.90;;;;;;4992497;28;20037;-64
2022/06/22 01:34:51;;;;;;;24.00;16.80;;;28.00;99.90;;;;;;4993059;28;20042;-64
2022/06/22 01:37:23;;;;;;;28.83;15.27;;;28.20;99.90;;;;;;4993891;28;20105;-64
2022/06/22 01:39:50;;;;;;;25.08;16.70;;;28.30;99.90;;;;;;4993557;28;20038;-63
2022/06/22 01:42:27;;;;;;;27.17;19.08;;;28.30;99.90;;;;;;4993484;28;20030;-65
2022/06/22 01:44:56;;;;;;;35.22;20.67;;;28.20;99.90;;;;;;4992911;28;20026;-65
2022/06/22 01:47:26;;;;;;;35.53;24.42;;;28.20;99.90;;;;;;4990921;28;20026;-64
2022/06/22 01:50:02;;;;;;;33.38;24.65;;;28.20;99.90;;;;;;4993242;28;20423;-64
2022/06/22 01:52:32;;;;;;;41.00;22.63;;;28.30;99.90;;;;;;4992156;28;20054;-65
2022/06/22 01:55:09;;;;;;;30.73;17.75;;;28.30;99.90;;;;;;4993007;28;20026;-63
2022/06/22 01:57:40;;;;;;;30.17;17.08;;;28.50;99.90;;;;;;4993161;28;20037;-64
2022/06/22 02:00:18;;;;;;;28.67;17.45;;;28.60;99.90;;;;;;5091517;28;20107;-63
2022/06/22 02:02:48;;;;;;;27.35;18.42;;;28.70;99.90;;;;;;5092232;28;20031;-63
2022/06/22 02:05:23;;;;;;;30.40;19.20;;;28.70;99.90;;;;;;5094080;28;20130;-63
2022/06/22 02:08:04;;;;;;;27.63;17.05;;;28.90;99.90;;;;;;5093292;28;20035;-64
2022/06/22 02:10:47;;;;;;;27.08;15.90;;;28.90;99.90;;;;;;5095379;28;20027;-64
2022/06/22 02:13:31;;;;;;;24.48;14.93;;;29.00;99.90;;;;;;5095216;28;20488;-67
2022/06/22 02:15:58;;;;;;;23.70;14.35;;;29.10;99.90;;;;;;5095554;28;20126;-68
2022/06/22 02:18:29;;;;;;;18.25;12.73;;;29.20;99.90;;;;;;5095636;28;20524;-65
2022/06/22 02:20:58;;;;;;;21.48;12.77;;;29.30;99.90;;;;;;5094041;28;20036;-65
2022/06/22 02:23:30;;;;;;;13.73;10.57;;;29.50;99.90;;;;;;5092936;28;20024;-66
2022/06/22 02:26:02;;;;;;;16.85;10.73;;;29.50;99.90;;;;;;5094605;28;20028;-66
2022/06/22 02:28:29;;;;;;;20.55;11.13;;;29.50;99.90;;;;;;5094474;28;20028;-65
2022/06/22 02:30:57;;;;;;;19.50;12.27;;;29.60;99.90;;;;;;5094521;28;20028;-67
2022/06/22 02:33:24;;;;;;;21.30;11.85;;;29.60;99.90;;;;;;5089061;28;20027;-65
2022/06/22 02:35:53;;;;;;;16.65;11.70;;;29.70;99.90;;;;;;5094855;28;20040;-66
2022/06/22 02:38:22;;;;;;;15.32;9.75;;;29.70;99.90;;;;;;5091203;28;20498;-69
2022/06/22 02:46:18;;;;;;;17.10;9.52;;;29.90;99.90;;;;;;5094419;28;20016;-64
2022/06/22 02:48:49;;;;;;;14.05;10.13;;;29.90;99.90;;;;;;5094256;28;20028;-66
2022/06/22 02:51:30;;;;;;;15.05;9.93;;;29.90;99.90;;;;;;5094952;28;20028;-64
2022/06/22 02:53:59;;;;;;;16.30;10.45;;;30.00;99.90;;;;;;5095100;28;20115;-63
2022/06/22 02:56:36;;;;;;;20.58;11.32;;;30.00;99.90;;;;;;5085710;28;20103;-63
2022/06/22 02:59:03;;;;;;;22.25;11.68;;;30.10;99.90;;;;;;5094819;28;20024;-64
2022/06/22 03:01:34;;;;;;;16.73;10.80;;;30.10;99.90;;;;;;5088930;28;20059;-64
2022/06/22 03:04:14;;;;;;;20.52;11.77;;;30.10;99.90;;;;;;5109083;28;20563;-62
2022/06/22 03:06:47;;;;;;;83.68;60.85;;;30.10;99.90;;;;;;5091102;28;20465;-62
2022/06/22 03:09:15;;;;;;;33.00;18.95;;;30.10;99.90;;;;;;5084644;28;20030;-61
2022/06/22 03:11:47;;;;;;;17.60;11.30;;;30.00;99.90;;;;;;5085734;28;20085;-62
2022/06/22 03:14:13;;;;;;;;;;;30.10;99.90;;;;;;5093363;28;20391;-64
2022/06/22 03:16:43;;;;;;;25.83;15.95;;;30.20;99.90;;;;;;5094232;28;19962;-65
2022/06/22 03:19:16;;;;;;;16.30;10.45;;;30.20;99.90;;;;;;5094064;28;20081;-64
2022/06/22 03:21:43;;;;;;;15.90;10.38;;;30.20;99.90;;;;;;5094286;28;20016;-65
2022/06/22 03:24:16;;;;;;;15.10;7.50;;;30.30;99.90;;;;;;5094164;28;20530;-63
2022/06/22 03:26:50;;;;;;;12.30;7.95;;;30.40;99.90;;;;;;5090479;28;20027;-64
2022/06/22 03:29:30;;;;;;;14.98;7.53;;;30.40;99.90;;;;;;5083897;28;20089;-63
2022/06/22 03:32:04;;;;;;;15.57;7.20;;;30.50;99.90;;;;;;5093466;28;20020;-63
2022/06/22 03:34:37;;;;;;;17.60;11.77;;;30.60;99.90;;;;;;5094057;28;20062;-64
2022/06/22 03:37:23;;;;;;;17.13;8.60;;;30.70;99.90;;;;;;5092828;28;20048;-67
2022/06/22 03:39:56;;;;;;;15.77;7.93;;;30.70;99.90;;;;;;5094032;28;20022;-66
2022/06/22 03:42:36;;;;;;;12.75;7.07;;;30.70;99.90;;;;;;5093277;28;20043;-65
2022/06/22 03:45:26;;;;;;;13.13;7.10;;;30.70;99.90;;;;;;5094865;28;20034;-62
2022/06/22 03:48:00;;;;;;;21.35;16.48;;;30.70;99.90;;;;;;5091495;28;20040;-64
2022/06/22 03:50:42;;;;;;;18.83;7.95;;;30.80;99.90;;;;;;5091475;28;20028;-64
2022/06/22 03:53:13;;;;;;;13.73;7.85;;;31.00;99.90;;;;;;5090697;28;20024;-63
2022/06/22 03:55:44;;;;;;;11.52;7.13;;;31.00;99.90;;;;;;5091206;28;20349;-64
2022/06/22 03:58:13;;;;;;;10.30;7.40;;;31.00;99.90;;;;;;5084512;28;20035;-65
2022/06/22 04:00:42;;;;;;;12.60;6.70;;;31.00;99.90;;;;;;5083290;28;20048;-64
2022/06/22 04:03:11;;;;;;;13.35;7.97;;;30.90;99.90;;;;;;5080899;28;20070;-66
2022/06/22 04:05:42;;;;;;;17.23;10.07;;;30.90;99.90;;;;;;5092833;28;20028;-66
2022/06/22 04:08:23;;;;;;;15.80;8.97;;;31.00;99.90;;;;;;5093654;28;20024;-64
2022/06/22 04:10:59;;;;;;;22.50;9.63;;;30.90;99.90;;;;;;5084281;28;20047;-67
2022/06/22 04:13:50;;;;;;;14.82;8.32;;;30.80;99.90;;;;;;5096282;28;20040;-63
2022/06/22 04:16:25;;;;;;;64.15;46.80;;;30.70;99.90;;;;;;5084661;28;20055;-64
2022/06/22 04:19:15;;;;;;;43.72;33.25;;;30.70;99.90;;;;;;5094698;28;20028;-64
2022/06/22 04:21:51;;;;;;;73.25;53.65;;;30.70;99.90;;;;;;5078882;28;20052;-65
2022/06/22 04:24:19;;;;;;;29.08;13.27;;;30.70;99.90;;;;;;5094314;28;20016;-64
2022/06/22 04:27:12;;;;;;;75.30;54.75;;;30.80;99.90;;;;;;5094719;28;20028;-64
2022/06/22 04:29:46;;;;;;;15.70;9.82;;;30.90;99.90;;;;;;5093618;28;20044;-65
2022/06/22 04:32:21;;;;;;;11.98;8.48;;;30.90;99.90;;;;;;5095609;28;20040;-68
2022/06/22 04:34:55;;;;;;;20.60;8.93;;;31.00;99.90;;;;;;5094228;28;20031;-67
2022/06/22 04:37:22;;;;;;;14.88;7.03;;;30.90;99.90;;;;;;5094327;28;20023;-64
2022/06/22 04:39:53;;;;;;;13.50;6.70;;;30.90;99.90;;;;;;5098992;22;20048;-64
2022/06/22 04:42:19;;;;;;;17.67;7.63;;;30.90;99.90;;;;;;5073807;28;20470;-64
2022/06/22 04:44:50;;;;;;;12.27;7.78;;;31.00;99.90;;;;;;5065689;28;20040;-65
2022/06/22 04:47:22;;;;;;;16.60;7.82;;;30.90;99.90;;;;;;5069827;28;20384;-65
2022/06/22 04:49:51;;;;;;;;;;;31.00;99.90;;;;;;5073700;28;20021;-66
2022/06/22 04:52:33;;;;;;;13.10;7.30;;;31.10;99.90;;;;;;5061292;28;19917;-66
2022/06/22 04:55:03;;;;;;;25.98;13.48;;;31.10;99.90;;;;;;5071214;28;20032;-66
2022/06/22 04:57:37;;;;;;;32.45;23.15;;;31.30;99.90;;;;;;5068432;28;20074;-65
2022/06/22 05:00:15;;;;;;;225.25;140.93;;;31.30;99.90;;;;;;5060934;28;20021;-64
2022/06/22 05:02:45;;;;;;;40.70;22.45;;;31.10;99.90;;;;;;5066951;28;20040;-64
2022/06/22 05:05:31;;;;;;;27.23;13.95;;;30.70;99.90;;;;;;5075406;28;20108;-65
2022/06/22 05:08:22;;;;;;;26.02;10.40;;;30.20;99.90;;;;;;5073849;28;20488;-64
2022/06/22 05:10:57;;;;;;;61.90;50.38;;;30.00;99.90;;;;;;5070487;28;20071;-64
2022/06/22 05:13:28;;;;;;;18.67;11.90;;;29.90;99.90;;;;;;5070598;28;20028;-64
2022/06/22 05:15:58;;;;;;;20.83;11.40;;;30.00;99.90;;;;;;5070461;28;20036;-64
2022/06/22 05:18:30;;;;;;;20.20;11.55;;;30.10;99.90;;;;;;5069109;28;20090;-64
2022/06/22 05:21:26;;;;;;;18.38;12.65;;;30.20;99.90;;;;;;5066889;28;20021;-64
2022/06/22 05:23:57;;;;;;;19.63;13.23;;;30.20;99.90;;;;;;4969674;28;20051;-64
2022/06/22 05:26:26;;;;;;;10.52;6.63;;;30.20;99.90;;;;;;4974762;28;20773;-63
2022/06/22 05:29:03;;;;;;;8.73;5.18;;;30.20;99.90;;;;;;4972083;28;20047;-64
2022/06/22 05:31:35;;;;;;;9.45;5.40;;;30.20;99.90;;;;;;4967259;28;20031;-64
2022/06/22 05:34:06;;;;;;;9.18;6.07;;;30.30;99.90;;;;;;4969563;28;20117;-65
2022/06/22 05:36:37;;;;;;;6.85;4.63;;;30.50;99.90;;;;;;4969126;28;20117;-63
2022/06/22 05:39:06;;;;;;;7.38;3.97;;;30.70;99.90;;;;;;4967995;28;20039;-65
2022/06/22 05:41:36;;;;;;;4.97;3.95;;;30.70;99.90;;;;;;4973652;28;20130;-63
2022/06/22 05:44:11;;;;;;;6.88;4.07;;;30.80;99.90;;;;;;4968311;28;20150;-63
2022/06/22 05:46:45;;;;;;;11.13;5.80;;;30.90;99.90;;;;;;4968941;28;20030;-64
2022/06/22 05:49:16;;;;;;;15.05;8.02;;;31.00;99.90;;;;;;4976306;28;20038;-64
2022/06/22 05:51:53;;;;;;;10.80;7.50;;;31.20;99.90;;;;;;4978156;28;20435;-63
2022/06/22 05:54:28;;;;;;;14.15;7.20;;;31.10;99.90;;;;;;4986705;28;20034;-64
2022/06/22 05:57:03;;;;;;;12.82;6.40;;;30.90;99.90;;;;;;4961545;28;20288;-65
2022/06/22 05:59:45;;;;;;;31.92;14.95;;;30.70;99.90;;;;;;4983610;28;20030;-64
2022/06/22 06:02:19;;;;;;;40.65;15.75;;;29.80;99.90;;;;;;5070445;28;20524;-65
2022/06/22 06:04:52;;;;;;;31.40;11.30;;;28.60;99.90;;;;;;5069838;28;20028;-66
2022/06/22 06:07:48;;;;;;;21.27;6.30;;;28.10;99.90;;;;;;5073112;28;20109;-66
2022/06/22 06:10:21;;;;;;;14.43;4.82;;;27.70;99.90;;;;;;4993963;28;20113;-65
2022/06/22 06:13:07;;;;;;;19.10;5.43;;;27.50;99.90;;;;;;5019683;28;20026;-64
2022/06/22 06:15:38;;;;;;;7.93;2.95;;;27.50;99.90;;;;;;5014263;28;20084;-65
2022/06/22 06:18:07;;;;;;;10.30;3.97;;;27.30;99.90;;;;;;5033012;28;20022;-66
2022/06/22 06:20:48;;;;;;;6.97;3.42;;;27.20;99.90;;;;;;5025662;28;20545;-65
2022/06/22 06:23:20;;;;;;;11.32;2.75;;;27.10;99.90;;;;;;5009713;28;20150;-65
2022/06/22 06:28:44;;;;;;;5.70;2.97;;;26.90;99.90;;;;;;5011544;28;20545;-67
2022/06/22 06:31:20;;;;;;;9.18;2.08;;;26.80;99.90;;;;;;5024332;28;20123;-66
2022/06/22 06:33:46;;;;;;;8.13;2.28;;;26.70;99.90;;;;;;5014227;28;20042;-66
2022/06/22 06:36:36;;;;;;;9.85;2.30;;;26.70;99.90;;;;;;5013952;28;20113;-65
2022/06/22 06:39:10;;;;;;;6.30;2.47;;;26.60;99.90;;;;;;4998792;28;20038;-65
2022/06/22 06:41:41;;;;;;;7.22;3.03;;;26.70;99.90;;;;;;5024619;28;20393;-65
2022/06/22 06:44:21;;;;;;;5.72;3.00;;;26.50;99.90;;;;;;5036581;28;20040;-65
2022/06/22 06:46:51;;;;;;;9.23;2.92;;;26.40;99.90;;;;;;5051581;28;20116;-64
2022/06/22 06:49:26;;;;;;;5.20;3.30;;;26.30;99.90;;;;;;5056262;28;20025;-65
2022/06/22 06:52:01;;;;;;;10.05;3.83;;;26.20;99.90;;;;;;5050233;28;20390;-65
2022/06/22 06:54:41;;;;;;;5.25;3.83;;;26.30;99.90;;;;;;5052985;28;20029;-66
2022/06/22 06:57:11;;;;;;;11.30;4.00;;;26.30;99.90;;;;;;5054980;28;20478;-66
2022/06/22 06:59:40;;;;;;;7.05;3.90;;;26.30;99.90;;;;;;5054979;28;20413;-67
2022/06/22 07:02:30;;;;;;;6.88;3.80;;;26.40;99.90;;;;;;5054734;28;20021;-66
2022/06/22 07:04:59;;;;;;;7.07;4.30;;;26.50;99.90;;;;;;4973883;28;20440;-66
2022/06/22 07:07:49;;;;;;;9.43;5.88;;;26.50;99.90;;;;;;4987186;28;20395;-66
2022/06/22 07:10:23;;;;;;;7.47;6.10;;;26.50;99.90;;;;;;4983857;28;20038;-64
2022/06/22 07:12:59;;;;;;;6.25;4.95;;;26.50;99.90;;;;;;4987839;28;20122;-64
2022/06/22 07:15:40;;;;;;;9.45;5.22;;;26.50;99.90;;;;;;4986712;28;20116;-65
2022/06/22 07:18:22;;;;;;;10.10;6.00;;;26.60;99.90;;;;;;4989882;28;20022;-64
2022/06/22 07:20:57;;;;;;;7.07;4.65;;;26.80;99.90;;;;;;4974883;28;20041;-65
2022/06/22 07:23:33;;;;;;;10.57;5.63;;;26.80;99.90;;;;;;4991023;28;20038;-64
2022/06/22 07:26:13;;;;;;;10.65;5.68;;;26.90;99.90;;;;;;4991750;28;20033;-64
2022/06/22 07:28:48;;;;;;;8.20;5.32;;;27.10;99.90;;;;;;4985107;28;20038;-63
2022/06/22 07:31:23;;;;;;;9.90;4.63;;;27.10;99.90;;;;;;4971360;28;20038;-65
2022/06/22 07:33:58;;;;;;;9.77;4.85;;;27.30;99.90;;;;;;4988236;28;20480;-64
2022/06/22 07:36:34;;;;;;;7.05;4.80;;;27.20;99.90;;;;;;4982587;28;20073;-63
2022/06/22 07:39:27;;;;;;;5.25;3.95;;;27.30;99.90;;;;;;4983325;28;20049;-64
2022/06/22 07:41:54;;;;;;;10.07;5.35;;;27.20;99.90;;;;;;5012080;28;20036;-65
2022/06/22 07:44:25;;;;;;;10.27;5.65;;;27.30;99.90;;;;;;5053035;28;20309;-65
2022/06/22 07:47:08;;;;;;;13.50;7.10;;;27.30;99.90;;;;;;5052913;28;20504;-64
2022/06/22 07:49:49;;;;;;;13.65;8.20;;;27.20;99.90;;;;;;5053114;28;20055;-65
2022/06/22 07:52:24;;;;;;;18.92;8.45;;;27.10;99.90;;;;;;5051225;28;20070;-65
2022/06/22 07:55:03;;;;;;;18.20;8.57;;;27.10;99.90;;;;;;5051750;28;20256;-65
2022/06/22 07:57:40;;;;;;;14.43;8.52;;;27.00;99.90;;;;;;5051260;28;20028;-66
2022/06/22 08:00:13;;;;;;;22.05;10.75;;;27.10;99.90;;;;;;5050517;28;20025;-65
2022/06/22 08:03:00;;;;;;;16.13;8.52;;;27.10;99.90;;;;;;5043328;28;20036;-66
2022/06/22 08:05:33;;;;;;;12.80;7.00;;;27.00;99.90;;;;;;5047261;28;20040;-65
2022/06/22 08:08:05;;;;;;;12.40;7.28;;;26.90;99.90;;;;;;5042318;28;20037;-65
2022/06/22 08:10:40;;;;;;;13.73;7.30;;;26.90;99.90;;;;;;5049026;28;20028;-65
2022/06/22 08:13:09;;;;;;;16.67;6.75;;;26.80;99.90;;;;;;5034575;28;20072;-65
2022/06/22 08:15:53;;;;;;;15.40;7.28;;;26.80;99.90;;;;;;5037941;28;20475;-65
2022/06/22 08:18:20;;;;;;;14.60;7.50;;;26.90;99.90;;;;;;5050001;28;20527;-64
2022/06/22 08:20:51;;;;;;;11.00;7.82;;;27.00;99.90;;;;;;5053391;28;20017;-65
2022/06/22 08:23:34;;;;;;;13.45;8.05;;;27.00;99.90;;;;;;5052329;28;20033;-64
2022/06/22 08:26:04;;;;;;;12.57;7.43;;;26.90;99.90;;;;;;5045638;28;20033;-65
2022/06/22 08:28:35;;;;;;;11.80;8.13;;;26.90;99.90;;;;;;5046165;28;20041;-65
2022/06/22 08:31:02;;;;;;;18.60;8.35;;;27.00;99.90;;;;;;5050990;28;20223;-66
2022/06/22 08:33:41;;;;;;;16.17;8.07;;;27.10;99.90;;;;;;5052821;28;20056;-66
2022/06/22 08:36:15;;;;;;;15.40;6.70;;;27.20;99.90;;;;;;5053367;28;20120;-66
2022/06/22 08:39:04;;;;;;;12.40;5.07;;;27.20;99.90;;;;;;5051177;28;20110;-66
2022/06/22 08:41:52;;;;;;;8.02;5.10;;;27.20;99.90;;;;;;5050899;28;20132;-65
2022/06/22 08:44:27;;;;;;;8.45;5.60;;;27.20;99.90;;;;;;5051316;28;20043;-66
2022/06/22 08:47:03;;;;;;;10.10;5.82;;;27.30;99.90;;;;;;5045105;28;20040;-66
2022/06/22 08:49:35;;;;;;;12.55;6.88;;;27.30;99.90;;;;;;5048621;28;20021;-66
2022/06/22 08:52:03;;;;;;;;;;;27.30;99.90;;;;;;5050236;28;20025;-65
2022/06/22 08:54:37;;;;;;;8.45;5.28;;;27.30;99.90;;;;;;5048663;28;19970;-65
2022/06/22 08:57:17;;;;;;;9.00;5.10;;;27.30;99.90;;;;;;5043956;28;20025;-64
2022/06/22 08:59:56;;;;;;;9.02;4.70;;;27.30;99.90;;;;;;5046471;28;20071;-66
2022/06/22 09:02:26;;;;;;;10.18;5.78;;;27.30;99.90;;;;;;5045445;28;20028;-65
2022/06/22 09:04:54;;;;;;;11.25;5.78;;;27.40;99.90;;;;;;5044294;28;20236;-66
2022/06/22 09:07:24;;;;;;;17.17;6.35;;;27.50;99.90;;;;;;5042503;28;20534;-65
2022/06/22 09:09:54;;;;;;;13.75;6.30;;;27.50;99.90;;;;;;5039377;28;20029;-68
2022/06/22 09:12:30;;;;;;;12.27;5.85;;;27.60;99.90;;;;;;5052578;28;20271;-66
2022/06/22 09:14:57;;;;;;;11.70;5.60;;;27.50;99.90;;;;;;5052584;28;20025;-66
2022/06/22 09:17:41;;;;;;;10.73;6.30;;;27.50;99.90;;;;;;5050793;28;20029;-65
2022/06/22 09:20:34;;;;;;;10.48;7.00;;;27.60;99.90;;;;;;5048455;28;20025;-65
2022/06/22 09:23:14;;;;;;;11.40;6.03;;;27.70;99.90;;;;;;5049481;28;20032;-66
2022/06/22 09:25:41;;;;;;;31.38;7.68;;;27.60;99.90;;;;;;5047455;28;20041;-67
2022/06/22 09:28:23;;;;;;;16.35;7.07;;;27.60;99.90;;;;;;5050090;28;20033;-66
2022/06/22 09:31:18;;;;;;;14.75;8.35;;;27.70;99.90;;;;;;5041078;28;20033;-65
2022/06/22 09:34:14;;;;;;;14.70;9.10;;;27.70;99.90;;;;;;4990793;28;20030;-64
2022/06/22 09:37:01;;;;;;;17.58;9.50;;;27.70;99.90;;;;;;5007065;28;20533;-65
2022/06/22 09:39:45;;;;;;;25.35;10.35;;;27.70;99.90;;;;;;4969785;28;20134;-64
2022/06/22 09:42:23;;;;;;;16.88;10.77;;;27.80;99.90;;;;;;4964690;28;20059;-68
2022/06/22 09:45:11;;;;;;;41.70;28.65;;;27.80;99.90;;;;;;4963181;28;20054;-65
2022/06/22 09:47:55;;;;;;;90.93;64.20;;;27.80;99.90;;;;;;4963758;28;20027;-64
2022/06/22 09:50:33;;;;;;;23.65;15.98;;;27.90;99.90;;;;;;4964982;28;20039;-66
2022/06/22 09:53:16;;;;;;;24.73;12.25;;;27.80;99.90;;;;;;4964702;28;20061;-65
2022/06/22 09:58:46;;;;;;;25.75;18.50;;;27.70;99.90;;;;;;4968142;28;20113;-68
2022/06/22 10:01:29;;;;;;;53.80;34.35;;;27.80;99.90;;;;;;4961109;28;20027;-68
2022/06/22 10:04:09;;;;;;;30.85;21.73;;;27.80;99.90;;;;;;4969334;28;20041;-67
2022/06/22 10:06:44;;;;;;;20.38;14.13;;;27.80;99.90;;;;;;4988138;28;20027;-66
2022/06/22 10:09:41;;;;;;;23.08;14.23;;;27.90;99.90;;;;;;4982751;28;20065;-67
2022/06/22 10:12:48;;;;;;;87.50;61.50;;;27.80;99.90;;;;;;4982696;28;20104;-65
2022/06/22 10:15:25;;;;;;;83.22;57.78;;;27.90;99.90;;;;;;4979866;28;20100;-65
2022/06/22 10:17:54;;;;;;;112.07;72.18;;;27.80;99.90;;;;;;5054357;28;20040;-64
2022/06/22 10:20:29;;;;;;;119.72;79.97;;;27.90;99.90;;;;;;5054352;28;20040;-65
2022/06/22 10:23:05;;;;;;;75.13;51.22;;;27.90;99.90;;;;;;5052650;28;20067;-66
2022/06/22 10:25:54;;;;;;;62.58;44.53;;;27.90;99.90;;;;;;5057627;28;20085;-66
2022/06/22 10:28:39;;;;;;;46.30;28.27;;;27.90;99.90;;;;;;5054940;28;20477;-69
2022/06/22 10:31:27;;;;;;;25.15;15.30;;;27.90;99.90;;;;;;5054966;28;20496;-66
2022/06/22 10:34:20;;;;;;;25.60;13.88;;;27.80;99.90;;;;;;4992587;28;20061;-66
2022/06/22 10:37:12;;;;;;;17.63;12.23;;;27.80;99.90;;;;;;4990935;28;20169;-66
2022/06/22 10:39:56;;;;;;;19.65;16.02;;;27.80;99.90;;;;;;4991511;28;20046;-66
2022/06/22 10:45:43;;;;;;;20.80;14.93;;;27.80;99.90;;;;;;5002618;28;20411;-65
2022/06/22 10:48:27;;;;;;;21.15;14.13;;;27.80;99.90;;;;;;4995384;28;20120;-65
2022/06/22 10:51:00;;;;;;;33.80;24.75;;;27.80;99.90;;;;;;5000048;28;20173;-65
2022/06/22 10:53:49;;;;;;;27.38;19.90;;;27.90;99.90;;;;;;4990092;28;20479;-65
2022/06/22 10:56:43;;;;;;;32.63;19.38;;;27.80;99.90;;;;;;4995613;28;20202;-66
2022/06/22 10:59:31;;;;;;;27.33;17.42;;;27.80;99.90;;;;;;4997327;28;20037;-66
2022/06/22 11:02:20;;;;;;;36.20;16.85;;;27.70;99.90;;;;;;4996113;28;20054;-64
2022/06/22 11:04:57;;;;;;;30.27;15.20;;;27.70;99.90;;;;;;4956535;28;20521;-65
2022/06/22 11:07:54;;;;;;;24.33;12.77;;;27.60;99.90;;;;;;4959912;28;20042;-65
2022/06/22 11:10:29;;;;;;;25.58;11.88;;;27.60;99.90;;;;;;4957219;28;20101;-65
2022/06/22 11:13:25;;;;;;;19.15;10.75;;;27.60;99.90;;;;;;4957505;28;20113;-66
2022/06/22 11:16:00;;;;;;;18.58;11.80;;;27.50;99.90;;;;;;4957064;28;20039;-67
2022/06/22 11:18:47;;;;;;;18.23;11.80;;;27.50;99.90;;;;;;5006991;28;20038;-65
2022/06/22 11:21:16;;;;;;;21.55;12.10;;;27.50;99.90;;;;;;5015436;28;20017;-66
2022/06/22 11:23:51;;;;;;;28.00;14.65;;;27.50;99.90;;;;;;5011918;28;20498;-66
2022/06/22 11:32:15;;;;;;;28.10;13.50;;;27.50;99.90;;;;;;5006469;28;20550;-65
2022/06/22 11:34:52;;;;;;;38.50;27.70;;;27.60;99.90;;;;;;5009511;28;20104;-65
2022/06/22 11:37:28;;;;;;;38.13;22.67;;;27.60;99.90;;;;;;5008341;28;20038;-65
2022/06/22 11:40:05;;;;;;;45.67;31.27;;;27.60;99.90;;;;;;5008797;28;20498;-63
2022/06/22 11:42:38;;;;;;;52.47;33.83;;;27.60;99.90;;;;;;5058224;28;20040;-64
2022/06/22 11:48:05;;;;;;;62.85;47.30;;;27.70;99.90;;;;;;5069245;28;20055;-63
2022/06/22 11:50:57;;;;;;;60.75;40.70;;;27.70;99.90;;;;;;5069276;28;20073;-65
2022/06/22 11:53:43;;;;;;;47.87;33.97;;;27.60;99.90;;;;;;5068122;28;20119;-63
2022/06/22 11:56:31;;;;;;;41.78;28.85;;;27.50;99.90;;;;;;5069876;28;20272;-64
2022/06/22 11:59:16;;;;;;;35.20;22.63;;;27.60;99.90;;;;;;5067990;28;20032;-65
2022/06/22 12:02:12;;;;;;;33.00;19.27;;;27.60;99.90;;;;;;5068174;28;20029;-63
2022/06/22 12:04:50;;;;;;;39.65;23.73;;;27.60;99.90;;;;;;5070026;28;20025;-64
2022/06/22 12:07:44;;;;;;;66.35;43.60;;;27.60;99.90;;;;;;5070426;28;20112;-63
2022/06/22 12:10:13;;;;;;;56.30;29.92;;;27.60;99.90;;;;;;5068439;28;20040;-63
2022/06/22 12:13:00;;;;;;;49.40;27.60;;;27.60;99.90;;;;;;5069994;28;20063;-64
2022/06/22 12:15:28;;;;;;;46.15;27.80;;;27.50;99.90;;;;;;5070094;28;20033;-64
2022/06/22 12:18:38;;;;;;;53.78;30.88;;;27.60;99.90;;;;;;5059212;28;20037;-64
2022/06/22 12:21:06;;;;;;;120.88;65.00;;;27.50;99.90;;;;;;5062608;28;20029;-64
2022/06/22 12:24:01;;;;;;;94.28;49.03;;;27.50;99.90;;;;;;5063224;28;21168;-64
2022/06/22 12:26:28;;;;;;;68.53;37.17;;;27.50;99.90;;;;;;5069819;28;20039;-65
2022/06/22 12:29:16;;;;;;;61.28;33.67;;;27.40;99.90;;;;;;5046613;28;20816;-65
2022/06/22 12:31:50;;;;;;;53.03;29.30;;;27.40;99.90;;;;;;5066465;28;20025;-65
2022/06/22 12:34:29;;;;;;;52.22;29.50;;;27.30;99.90;;;;;;5067584;28;20281;-63
2022/06/22 12:37:00;;;;;;;69.90;31.83;;;27.30;99.90;;;;;;5067364;28;20113;-65
2022/06/22 12:39:34;;;;;;;67.22;34.20;;;27.20;99.90;;;;;;5058193;28;20041;-65
2022/06/22 12:42:22;;;;;;;75.03;33.08;;;27.20;99.90;;;;;;5048008;28;20430;-65
2022/06/22 12:45:09;;;;;;;81.60;35.90;;;27.20;99.90;;;;;;5047092;28;20048;-65
2022/06/22 12:47:53;;;;;;;90.70;46.38;;;27.20;99.90;;;;;;5050250;28;20158;-65
2022/06/22 12:50:44;;;;;;;93.28;61.67;;;27.20;99.90;;;;;;5051312;28;20025;-63
2022/06/22 12:53:20;;;;;;;84.60;59.20;;;27.20;99.90;;;;;;5047977;28;20033;-64
2022/06/22 12:55:54;;;;;;;82.05;56.05;;;27.20;99.90;;;;;;5049087;28;20052;-65
2022/06/22 12:58:27;;;;;;;98.95;64.30;;;27.20;99.90;;;;;;5050297;28;20476;-64
2022/06/22 13:00:57;;;;;;;100.05;65.90;;;27.20;99.90;;;;;;5048870;28;20021;-65
2022/06/22 13:03:31;;;;;;;95.90;71.47;;;27.10;99.90;;;;;;5048567;28;20053;-63
2022/06/22 13:05:58;;;;;;;117.15;93.53;;;27.10;99.90;;;;;;5049452;28;20048;-64
2022/06/22 13:08:27;;;;;;;126.00;104.55;;;27.10;99.90;;;;;;5048046;28;20389;-65
2022/06/22 13:11:07;;;;;;;126.95;100.97;;;27.00;99.90;;;;;;5045824;28;20036;-63
2022/06/22 13:13:56;;;;;;;133.30;104.60;;;27.10;99.90;;;;;;5044316;28;20037;-64
2022/06/22 13:16:36;;;;;;;107.88;80.13;;;27.10;99.90;;;;;;5049876;28;20047;-64
2022/06/22 13:19:17;;;;;;;93.65;63.70;;;27.10;99.90;;;;;;5048967;28;20030;-62
2022/06/22 13:22:04;;;;;;;85.20;60.40;;;27.10;99.90;;;;;;5037860;28;20039;-63
2022/06/22 13:24:41;;;;;;;80.43;54.22;;;27.10;99.90;;;;;;5047400;28;20040;-63
2022/06/22 13:27:43;;;;;;;80.82;54.03;;;27.10;99.90;;;;;;5049802;28;20099;-63
2022/06/22 13:30:44;;;;;;;83.15;51.17;;;27.10;99.90;;;;;;5047229;28;20041;-62
2022/06/22 13:33:18;;;;;;;80.03;50.53;;;27.10;99.90;;;;;;5012038;28;20041;-62
2022/06/22 13:36:01;;;;;;;84.47;51.60;;;27.10;99.90;;;;;;5017064;28;20029;-62
2022/06/22 13:38:46;;;;;;;77.38;47.72;;;27.00;99.90;;;;;;5018184;28;20513;-63
2022/06/22 13:41:35;;;;;;;72.10;47.45;;;27.00;99.90;;;;;;5016085;28;20076;-64
2022/06/22 13:44:23;;;;;;;83.20;47.20;;;27.00;99.90;;;;;;5014241;28;20022;-62
2022/06/22 13:47:09;;;;;;;72.28;47.53;;;27.10;99.90;;;;;;5014181;28;20517;-64